Time;durP1;ratioP1;P1;durP2;ratioP2;P2;SDS_P1;SDS_P2;PMS_P1;PMS_P2;Temp;Humidity;BMP_temperature;BMP_pressure;BME280_temperature;BME280_humidity;BME280_pressure;Samples;Min_cycle;Max_cycle;Signal;HPM_P1;HPM_P2
2023/05/14 00:00:24;;;;;;;4.97;4.57;;;20.20;60.10;;;;;;5114708;28;20188;-60
2023/05/14 00:02:49;;;;;;;5.18;4.78;;;20.20;60.20;;;;;;5114658;28;20524;-60
2023/05/14 00:05:15;;;;;;;5.28;4.85;;;20.20;60.10;;;;;;5114943;28;20616;-60
2023/05/14 00:07:41;;;;;;;4.82;4.53;;;20.20;60.10;;;;;;5115140;28;20165;-60
2023/05/14 00:10:06;;;;;;;4.60;4.30;;;20.20;60.20;;;;;;5113955;28;20213;-60
2023/05/14 00:12:32;;;;;;;4.85;4.45;;;20.20;60.20;;;;;;5114812;28;20197;-59
2023/05/14 00:14:58;;;;;;;5.05;4.65;;;20.20;60.20;;;;;;5114771;28;20181;-59
2023/05/14 00:17:23;;;;;;;4.82;4.53;;;20.20;60.10;;;;;;5113949;28;20169;-60
2023/05/14 00:19:49;;;;;;;5.68;5.20;;;20.10;60.00;;;;;;5114880;28;20181;-60
2023/05/14 00:22:14;;;;;;;5.35;4.95;;;20.10;60.00;;;;;;5113928;28;20182;-60
2023/05/14 00:24:40;;;;;;;5.40;4.57;;;20.10;60.00;;;;;;5113775;28;20260;-59
2023/05/14 00:27:06;;;;;;;5.65;5.15;;;20.10;59.90;;;;;;5114418;28;20192;-60
2023/05/14 00:29:31;;;;;;;4.82;4.47;;;20.10;59.90;;;;;;5113748;28;20209;-60
2023/05/14 00:31:57;;;;;;;5.18;4.78;;;20.10;59.90;;;;;;5114708;28;20724;-61
2023/05/14 00:34:23;;;;;;;4.85;4.45;;;20.20;60.00;;;;;;5114435;28;20226;-60
2023/05/14 00:36:50;;;;;;;5.05;4.55;;;20.10;60.00;;;;;;5113805;28;20173;-60
2023/05/14 00:39:15;;;;;;;5.45;4.75;;;20.00;59.90;;;;;;5114000;28;20178;-60
2023/05/14 00:41:41;;;;;;;4.80;4.40;;;20.10;59.90;;;;;;5114338;28;20170;-60
2023/05/14 00:44:06;;;;;;;5.28;4.78;;;20.10;59.90;;;;;;5113145;28;20188;-60
2023/05/14 00:46:32;;;;;;;5.13;4.72;;;20.10;59.90;;;;;;5114425;28;20609;-60
2023/05/14 00:48:57;;;;;;;5.20;4.80;;;20.10;60.00;;;;;;5114248;28;20657;-59
2023/05/14 00:51:23;;;;;;;5.00;4.60;;;20.00;59.80;;;;;;5111929;28;20584;-60
2023/05/14 00:53:49;;;;;;;4.60;4.20;;;20.10;59.90;;;;;;5113007;28;20177;-60
2023/05/14 00:56:14;;;;;;;5.00;4.60;;;20.10;59.80;;;;;;5112641;28;20188;-60
2023/05/14 00:58:40;;;;;;;5.47;4.80;;;20.00;59.80;;;;;;5113132;28;20227;-60
2023/05/14 01:01:05;;;;;;;5.53;5.05;;;20.00;59.90;;;;;;5113895;28;20184;-60
2023/05/14 01:03:31;;;;;;;6.03;5.05;;;20.00;59.90;;;;;;5112922;28;20623;-60
2023/05/14 01:06:04;;;;;;;5.20;4.80;;;20.00;59.80;;;;;;5112003;28;20590;-60
2023/05/14 01:08:39;;;;;;;5.75;5.10;;;20.00;59.80;;;;;;5113537;28;20691;-60
2023/05/14 01:11:26;;;;;;;5.20;4.80;;;20.00;59.80;;;;;;5113404;28;20226;-60
2023/05/14 01:14:08;;;;;;;4.78;4.47;;;20.00;59.90;;;;;;5113127;28;20626;-60
2023/05/14 01:16:33;;;;;;;4.70;4.22;;;20.00;59.90;;;;;;5113865;28;20192;-60
2023/05/14 01:18:59;;;;;;;5.57;5.07;;;20.00;59.80;;;;;;5111772;28;20671;-60
2023/05/14 01:21:39;;;;;;;5.45;4.95;;;20.00;59.80;;;;;;5112231;28;20707;-59
2023/05/14 01:24:05;;;;;;;4.43;4.13;;;20.00;59.90;;;;;;5113233;28;20236;-60
2023/05/14 01:26:31;;;;;;;5.15;4.63;;;20.00;59.90;;;;;;5112820;28;20173;-60
2023/05/14 01:29:23;;;;;;;5.18;4.72;;;20.00;59.80;;;;;;5095611;28;20223;-59
2023/05/14 01:31:49;;;;;;;4.97;4.57;;;20.00;59.80;;;;;;5097826;28;20185;-60
2023/05/14 01:34:15;;;;;;;5.70;5.20;;;20.00;59.80;;;;;;5111662;28;20628;-61
2023/05/14 01:36:41;;;;;;;5.05;4.65;;;20.00;59.80;;;;;;5113603;28;20177;-60
2023/05/14 01:39:08;;;;;;;6.38;5.40;;;19.90;59.70;;;;;;5112134;28;20185;-60
2023/05/14 01:41:34;;;;;;;5.60;4.82;;;20.00;59.70;;;;;;5094649;28;20173;-60
2023/05/14 01:43:59;;;;;;;5.53;4.97;;;20.00;59.80;;;;;;5113421;28;20207;-60
2023/05/14 01:46:25;;;;;;;5.60;5.10;;;19.90;59.70;;;;;;5111805;28;20655;-59
2023/05/14 01:48:50;;;;;;;5.22;4.72;;;19.90;59.70;;;;;;5112728;28;20299;-59
2023/05/14 01:51:16;;;;;;;5.07;4.68;;;19.90;59.70;;;;;;5113124;28;20165;-60
2023/05/14 01:53:42;;;;;;;5.13;4.72;;;20.00;59.80;;;;;;5113443;28;20173;-60
2023/05/14 01:56:07;;;;;;;5.50;5.00;;;19.90;59.70;;;;;;5112257;28;20172;-60
2023/05/14 01:58:33;;;;;;;4.80;4.40;;;19.90;59.70;;;;;;5113185;28;20188;-60
2023/05/14 02:00:58;;;;;;;4.88;4.47;;;19.90;59.70;;;;;;5112327;28;20177;-60
2023/05/14 02:03:24;;;;;;;5.68;5.28;;;19.90;59.70;;;;;;5113060;28;20173;-60
2023/05/14 02:05:49;;;;;;;5.20;4.80;;;19.90;59.70;;;;;;5113264;28;20211;-60
2023/05/14 02:08:15;;;;;;;5.85;5.25;;;19.90;59.70;;;;;;5112205;28;20181;-60
2023/05/14 02:10:40;;;;;;;5.28;4.78;;;19.90;59.70;;;;;;5113157;28;20184;-60
2023/05/14 02:13:08;;;;;;;5.20;4.80;;;19.90;59.80;;;;;;5112985;28;20169;-60
2023/05/14 02:15:33;;;;;;;5.25;4.75;;;19.90;59.70;;;;;;5112213;28;20248;-60
2023/05/14 02:17:59;;;;;;;5.38;4.88;;;19.90;59.70;;;;;;5113134;28;20574;-59
2023/05/14 02:20:24;;;;;;;4.65;4.32;;;19.90;59.70;;;;;;5112676;28;20707;-59
2023/05/14 02:22:50;;;;;;;6.35;4.90;;;19.90;59.80;;;;;;5112298;28;20299;-60
2023/05/14 02:25:16;;;;;;;5.60;5.05;;;19.90;59.80;;;;;;5112628;28;20233;-59
2023/05/14 02:27:41;;;;;;;4.38;3.97;;;19.90;59.80;;;;;;5112923;28;20173;-60
2023/05/14 02:30:07;;;;;;;5.72;4.55;;;19.90;59.80;;;;;;5111699;28;20254;-60
2023/05/14 02:32:33;;;;;;;5.75;4.80;;;19.90;59.70;;;;;;5112736;28;20616;-61
2023/05/14 02:34:59;;;;;;;4.95;4.45;;;19.90;59.80;;;;;;5113069;28;20173;-61
2023/05/14 02:37:24;;;;;;;5.32;4.88;;;19.90;59.80;;;;;;5111958;28;20575;-60
2023/05/14 02:39:50;;;;;;;5.30;4.80;;;19.80;59.80;;;;;;5113066;28;20537;-60
2023/05/14 02:42:15;;;;;;;4.75;4.35;;;19.90;59.80;;;;;;5112636;28;20631;-60
2023/05/14 02:44:41;;;;;;;4.88;4.45;;;19.80;59.70;;;;;;5113583;28;20578;-60
2023/05/14 02:47:06;;;;;;;5.40;4.95;;;19.80;59.70;;;;;;5116283;28;20267;-60
2023/05/14 02:49:32;;;;;;;5.28;4.78;;;19.80;59.80;;;;;;5116410;28;20216;-60
2023/05/14 02:51:59;;;;;;;4.95;4.45;;;19.80;59.70;;;;;;5115895;28;20165;-60
2023/05/14 02:54:25;;;;;;;4.88;4.50;;;19.80;59.70;;;;;;5116339;28;20181;-60
2023/05/14 02:56:50;;;;;;;5.10;4.63;;;19.80;59.70;;;;;;5116663;28;20184;-60
2023/05/14 02:59:16;;;;;;;5.00;4.60;;;19.80;59.70;;;;;;5115643;28;20273;-59
2023/05/14 03:01:41;;;;;;;5.35;4.95;;;19.80;59.70;;;;;;5116289;28;20234;-60
2023/05/14 03:04:07;;;;;;;5.78;5.25;;;19.80;59.70;;;;;;5115766;28;20188;-60
2023/05/14 03:06:33;;;;;;;4.75;4.35;;;19.80;59.70;;;;;;5115845;28;20173;-60
2023/05/14 03:08:58;;;;;;;5.78;5.10;;;19.80;59.70;;;;;;5116207;28;20200;-60
2023/05/14 03:11:24;;;;;;;4.80;4.40;;;19.80;59.80;;;;;;5115110;28;20184;-60
2023/05/14 03:13:50;;;;;;;5.05;4.65;;;19.80;59.70;;;;;;5116225;28;20181;-59
2023/05/14 03:16:15;;;;;;;5.70;5.20;;;19.80;59.70;;;;;;5115713;28;20701;-60
2023/05/14 03:18:41;;;;;;;4.93;4.53;;;19.80;59.70;;;;;;5115339;28;20252;-59
2023/05/14 03:21:07;;;;;;;5.00;4.60;;;19.80;59.70;;;;;;5115834;28;20291;-60
2023/05/14 03:23:33;;;;;;;5.15;4.75;;;19.70;59.60;;;;;;5115697;28;20224;-59
2023/05/14 03:25:59;;;;;;;5.20;4.80;;;19.70;59.70;;;;;;5114129;28;20204;-60
2023/05/14 03:28:25;;;;;;;5.07;4.68;;;19.80;59.60;;;;;;5115528;28;20239;-61
2023/05/14 03:30:51;;;;;;;5.05;4.65;;;19.70;59.60;;;;;;5115593;28;20185;-60
2023/05/14 03:33:16;;;;;;;5.78;5.18;;;19.70;59.60;;;;;;5113361;28;20235;-61
2023/05/14 03:35:42;;;;;;;5.95;4.65;;;19.70;59.60;;;;;;5115517;28;20226;-61
2023/05/14 03:38:07;;;;;;;5.47;5.07;;;19.70;59.60;;;;;;5115352;28;20166;-60
2023/05/14 03:40:33;;;;;;;5.07;4.68;;;19.70;59.60;;;;;;5114872;28;20177;-60
2023/05/14 03:42:58;;;;;;;4.90;4.50;;;19.70;59.60;;;;;;5115345;28;20222;-60
2023/05/14 03:45:24;;;;;;;5.35;4.95;;;19.70;59.60;;;;;;5115109;28;20185;-60
2023/05/14 03:47:49;;;;;;;5.53;5.03;;;19.70;59.60;;;;;;5114557;28;20172;-60
2023/05/14 03:50:15;;;;;;;5.32;4.80;;;19.70;59.60;;;;;;5115112;28;20220;-60
2023/05/14 03:52:40;;;;;;;6.10;5.50;;;19.70;59.50;;;;;;5115277;28;20177;-60
2023/05/14 03:55:06;;;;;;;5.68;5.18;;;19.70;59.50;;;;;;5114228;28;20173;-60
2023/05/14 03:57:31;;;;;;;4.97;4.57;;;19.70;59.60;;;;;;5114347;28;20177;-60
2023/05/14 03:59:57;;;;;;;5.50;5.10;;;19.70;59.50;;;;;;5115180;28;20264;-61
2023/05/14 04:02:23;;;;;;;5.03;4.60;;;19.70;59.50;;;;;;5114362;28;20628;-60
2023/05/14 04:04:48;;;;;;;5.53;5.03;;;19.70;59.50;;;;;;5115262;28;20230;-60
2023/05/14 04:07:14;;;;;;;5.63;5.13;;;19.70;59.50;;;;;;5114759;28;20659;-60
2023/05/14 04:09:39;;;;;;;5.28;4.85;;;19.70;59.50;;;;;;5114221;28;20581;-60
2023/05/14 04:12:05;;;;;;;4.75;4.38;;;19.70;59.50;;;;;;5114762;28;20168;-60
2023/05/14 04:14:31;;;;;;;5.32;4.93;;;19.70;59.50;;;;;;5114024;28;20679;-59
2023/05/14 04:16:56;;;;;;;4.72;4.32;;;19.70;59.50;;;;;;5115064;28;20245;-60
2023/05/14 04:19:22;;;;;;;5.00;4.57;;;19.70;59.50;;;;;;5114697;28;20173;-59
2023/05/14 04:21:48;;;;;;;5.43;4.93;;;19.70;59.40;;;;;;5114081;28;20897;-60
2023/05/14 04:24:13;;;;;;;5.10;4.70;;;19.70;59.50;;;;;;5114412;28;20229;-59
2023/05/14 04:26:39;;;;;;;5.63;4.68;;;19.70;59.50;;;;;;5114722;28;20214;-60
2023/05/14 04:29:04;;;;;;;5.10;4.68;;;19.70;59.40;;;;;;5113588;28;20235;-60
2023/05/14 04:31:30;;;;;;;5.22;4.82;;;19.70;59.50;;;;;;5114582;28;20222;-61
2023/05/14 04:33:55;;;;;;;5.35;4.65;;;19.70;59.40;;;;;;5114643;28;20185;-61
2023/05/14 04:36:21;;;;;;;5.55;5.03;;;19.60;59.30;;;;;;5113542;28;20172;-61
2023/05/14 04:38:47;;;;;;;4.75;4.45;;;19.70;59.40;;;;;;5114535;28;20189;-60
2023/05/14 04:41:12;;;;;;;5.85;5.35;;;19.70;59.40;;;;;;5114119;28;20171;-60
2023/05/14 04:43:38;;;;;;;4.82;4.43;;;19.70;59.40;;;;;;5113588;28;20181;-59
2023/05/14 04:46:04;;;;;;;5.00;4.53;;;19.70;59.30;;;;;;5114559;28;20199;-60
2023/05/14 04:48:30;;;;;;;5.25;4.75;;;19.70;59.40;;;;;;5113830;28;20225;-60
2023/05/14 04:50:55;;;;;;;5.50;5.00;;;19.70;59.30;;;;;;5113505;28;20173;-60
2023/05/14 04:53:21;;;;;;;5.40;4.90;;;19.70;59.30;;;;;;5113760;28;20179;-59
2023/05/14 04:55:46;;;;;;;5.95;5.35;;;19.70;59.30;;;;;;5114133;28;20201;-60
2023/05/14 04:58:12;;;;;;;4.70;4.30;;;19.70;59.30;;;;;;5112948;28;20180;-60
2023/05/14 05:00:38;;;;;;;5.38;4.75;;;19.70;59.30;;;;;;5114074;28;20169;-60
2023/05/14 05:03:04;;;;;;;4.82;4.43;;;19.70;59.30;;;;;;5114169;28;20177;-60
2023/05/14 05:05:30;;;;;;;5.55;5.05;;;19.70;59.30;;;;;;5113235;28;20196;-60
2023/05/14 05:07:55;;;;;;;5.50;5.07;;;19.70;59.30;;;;;;5113768;28;20639;-60
2023/05/14 05:10:21;;;;;;;5.20;4.70;;;19.70;59.30;;;;;;5113365;28;20291;-59
2023/05/14 05:12:46;;;;;;;4.75;4.38;;;19.70;59.30;;;;;;5112967;28;20200;-60
2023/05/14 05:15:12;;;;;;;4.95;4.47;;;19.70;59.20;;;;;;5113476;28;20248;-59
2023/05/14 05:17:37;;;;;;;5.05;4.55;;;19.70;59.20;;;;;;5113810;28;20252;-59
2023/05/14 05:20:06;;;;;;;5.10;4.70;;;19.70;59.30;;;;;;5113041;28;20201;-59
2023/05/14 05:22:32;;;;;;;5.00;4.60;;;19.70;59.30;;;;;;5113790;28;20180;-59
2023/05/14 05:24:58;;;;;;;5.30;4.90;;;19.70;59.20;;;;;;5112844;28;20185;-60
2023/05/14 05:27:24;;;;;;;4.90;4.50;;;19.70;59.30;;;;;;5113073;28;20591;-60
2023/05/14 05:29:50;;;;;;;5.07;4.47;;;19.70;59.20;;;;;;5113379;28;20244;-60
2023/05/14 05:32:15;;;;;;;5.15;4.72;;;19.70;59.20;;;;;;5112537;28;20193;-61
2023/05/14 05:34:41;;;;;;;5.22;4.72;;;19.70;59.30;;;;;;5113583;28;20267;-61
2023/05/14 05:37:08;;;;;;;5.28;4.88;;;19.70;59.30;;;;;;5113156;28;20264;-60
2023/05/14 05:39:33;;;;;;;4.93;4.53;;;19.70;59.40;;;;;;5112654;28;20195;-60
2023/05/14 05:42:01;;;;;;;5.47;5.03;;;19.70;59.50;;;;;;5113250;28;20676;-60
2023/05/14 05:44:26;;;;;;;5.03;4.63;;;19.70;59.50;;;;;;5112952;28;20584;-60
2023/05/14 05:46:52;;;;;;;5.90;5.30;;;19.70;59.50;;;;;;5112678;28;20184;-60
2023/05/14 05:49:17;;;;;;;4.53;4.22;;;19.70;59.40;;;;;;5112935;28;20659;-60
2023/05/14 05:51:43;;;;;;;4.85;4.45;;;19.70;59.50;;;;;;5113387;28;20173;-60
2023/05/14 05:54:08;;;;;;;7.72;4.80;;;19.70;59.40;;;;;;5112236;28;20188;-60
2023/05/14 05:56:34;;;;;;;4.72;4.32;;;19.70;59.30;;;;;;5113097;28;20173;-60
2023/05/14 05:58:59;;;;;;;5.10;4.70;;;19.70;59.30;;;;;;5113271;28;20244;-60
2023/05/14 06:01:25;;;;;;;5.35;4.93;;;19.80;59.40;;;;;;5112426;28;20647;-61
2023/05/14 06:03:51;;;;;;;4.93;4.53;;;19.70;59.30;;;;;;5113051;28;20237;-60
2023/05/14 06:06:17;;;;;;;5.03;4.47;;;19.70;59.30;;;;;;5112964;28;20338;-60
2023/05/14 06:08:42;;;;;;;5.03;4.63;;;19.80;59.40;;;;;;5112294;28;20201;-60
2023/05/14 06:11:08;;;;;;;4.70;4.30;;;19.80;60.00;;;;;;5112639;28;20217;-60
2023/05/14 06:13:33;;;;;;;4.65;4.25;;;19.80;59.40;;;;;;5113172;28;20222;-60
2023/05/14 06:15:59;;;;;;;5.15;4.57;;;19.70;59.40;;;;;;5112217;28;20583;-60
2023/05/14 06:18:24;;;;;;;5.15;4.75;;;19.80;59.40;;;;;;5112675;28;20529;-60
2023/05/14 06:20:50;;;;;;;4.80;4.40;;;19.80;59.40;;;;;;5116547;28;20172;-60
2023/05/14 06:23:15;;;;;;;4.70;4.30;;;19.80;59.50;;;;;;5116007;28;20216;-60
2023/05/14 06:25:41;;;;;;;4.95;4.53;;;19.80;59.60;;;;;;5116988;28;20169;-60
2023/05/14 06:28:06;;;;;;;4.63;4.32;;;19.80;59.60;;;;;;5116477;28;20230;-60
2023/05/14 06:30:32;;;;;;;5.05;4.53;;;19.90;59.60;;;;;;5116790;28;20230;-61
2023/05/14 06:32:57;;;;;;;4.47;4.07;;;19.80;59.60;;;;;;5116950;28;20169;-62
2023/05/14 06:35:23;;;;;;;4.70;4.30;;;19.90;59.60;;;;;;5115761;28;20173;-60
2023/05/14 06:37:48;;;;;;;4.97;4.57;;;19.90;60.40;;;;;;5116807;28;20571;-60
2023/05/14 06:40:14;;;;;;;4.78;4.38;;;19.90;59.70;;;;;;5116590;28;20176;-60
2023/05/14 06:42:40;;;;;;;4.82;4.35;;;19.90;59.60;;;;;;5116136;28;20184;-60
2023/05/14 06:45:06;;;;;;;4.25;3.95;;;19.90;59.60;;;;;;5116614;28;20173;-60
2023/05/14 06:47:32;;;;;;;4.45;4.15;;;19.90;59.50;;;;;;5116609;28;20535;-60
2023/05/14 06:49:58;;;;;;;4.88;4.47;;;19.90;59.50;;;;;;5115877;28;20208;-60
2023/05/14 06:52:24;;;;;;;4.65;4.32;;;19.90;59.50;;;;;;5116246;28;20173;-60
2023/05/14 06:54:50;;;;;;;4.38;3.97;;;20.00;59.50;;;;;;5116344;28;20180;-60
2023/05/14 06:57:15;;;;;;;4.40;4.10;;;20.00;59.50;;;;;;5115316;28;20623;-60
2023/05/14 06:59:41;;;;;;;4.13;3.72;;;20.00;59.50;;;;;;5116319;28;20632;-60
2023/05/14 07:02:06;;;;;;;4.55;4.03;;;20.00;59.40;;;;;;5116100;28;20181;-61
2023/05/14 07:04:32;;;;;;;4.85;4.45;;;20.00;59.40;;;;;;5115615;28;20647;-60
2023/05/14 07:06:57;;;;;;;4.70;4.30;;;20.10;59.40;;;;;;5116322;28;20639;-60
2023/05/14 07:09:23;;;;;;;4.32;4.03;;;20.10;59.30;;;;;;5115695;28;20193;-60
2023/05/14 07:11:48;;;;;;;4.63;4.20;;;20.10;59.40;;;;;;5115473;28;20180;-60
2023/05/14 07:14:14;;;;;;;4.82;4.40;;;20.10;59.40;;;;;;5115925;28;20177;-60
2023/05/14 07:16:41;;;;;;;5.15;4.38;;;20.10;59.50;;;;;;5116037;28;20172;-60
2023/05/14 07:19:06;;;;;;;5.07;4.50;;;20.10;59.50;;;;;;5115122;28;20180;-60
2023/05/14 07:21:32;;;;;;;3.95;3.55;;;20.10;59.40;;;;;;5115972;28;20169;-60
2023/05/14 07:23:57;;;;;;;4.38;3.97;;;20.10;59.40;;;;;;5115567;28;20221;-60
2023/05/14 07:26:23;;;;;;;4.90;4.50;;;20.10;59.30;;;;;;5114867;28;20524;-60
2023/05/14 07:28:48;;;;;;;4.60;4.15;;;20.10;59.30;;;;;;5115525;28;20702;-60
2023/05/14 07:31:14;;;;;;;3.97;3.67;;;20.10;59.40;;;;;;5114293;28;20173;-61
2023/05/14 07:33:40;;;;;;;4.35;3.95;;;20.20;59.40;;;;;;5115128;28;20169;-61
2023/05/14 07:36:06;;;;;;;4.28;3.88;;;20.20;59.40;;;;;;5115355;28;20184;-60
2023/05/14 07:38:31;;;;;;;4.50;4.10;;;20.20;59.40;;;;;;5114809;28;20228;-61
2023/05/14 07:40:57;;;;;;;4.07;3.67;;;20.20;59.30;;;;;;5114520;28;20248;-60
2023/05/14 07:43:22;;;;;;;4.60;4.20;;;20.20;59.30;;;;;;5115436;28;20173;-60
2023/05/14 07:45:48;;;;;;;4.70;4.30;;;20.30;59.30;;;;;;5114815;28;20826;-60
2023/05/14 07:48:13;;;;;;;4.43;4.03;;;20.20;59.20;;;;;;5115070;28;20196;-60
2023/05/14 07:50:39;;;;;;;4.30;3.90;;;20.20;59.20;;;;;;5115486;28;20536;-60
2023/05/14 07:53:05;;;;;;;4.75;4.35;;;20.30;59.20;;;;;;5114264;28;20176;-60
2023/05/14 07:55:30;;;;;;;4.72;3.80;;;20.20;59.20;;;;;;5115190;28;20241;-60
2023/05/14 07:57:56;;;;;;;4.68;4.28;;;20.30;59.20;;;;;;5115221;28;20319;-61
2023/05/14 08:00:21;;;;;;;4.25;3.85;;;20.30;59.20;;;;;;5114285;28;20742;-61
2023/05/14 08:02:47;;;;;;;4.50;4.20;;;20.30;59.10;;;;;;5115161;28;20541;-61
2023/05/14 08:05:13;;;;;;;4.47;4.10;;;20.30;59.10;;;;;;5114747;28;20206;-61
2023/05/14 08:07:38;;;;;;;4.00;3.70;;;20.30;59.20;;;;;;5114259;28;20200;-60
2023/05/14 08:10:06;;;;;;;4.53;4.13;;;20.40;59.20;;;;;;5114940;28;20224;-60
2023/05/14 08:12:32;;;;;;;4.22;3.83;;;20.40;59.20;;;;;;5115081;28;20177;-60
2023/05/14 08:14:57;;;;;;;4.13;3.83;;;20.30;59.10;;;;;;5114263;28;20556;-60
2023/05/14 08:17:23;;;;;;;4.03;3.70;;;20.40;59.20;;;;;;5114696;28;20532;-60
2023/05/14 08:19:48;;;;;;;4.22;3.83;;;20.30;59.10;;;;;;5114667;28;20539;-60
2023/05/14 08:22:14;;;;;;;4.22;3.88;;;20.40;59.20;;;;;;5113473;28;20534;-60
2023/05/14 08:24:41;;;;;;;4.55;4.15;;;20.40;59.20;;;;;;5114497;28;20216;-59
2023/05/14 08:27:07;;;;;;;4.68;4.28;;;20.50;59.30;;;;;;5114150;28;20571;-59
2023/05/14 08:29:32;;;;;;;5.00;4.45;;;20.50;59.20;;;;;;5113910;28;20257;-60
2023/05/14 08:31:58;;;;;;;4.20;3.90;;;20.50;59.20;;;;;;5114494;28;20631;-61
2023/05/14 08:34:23;;;;;;;3.63;3.42;;;20.50;59.20;;;;;;5114131;28;20176;-61
2023/05/14 08:36:49;;;;;;;4.38;3.97;;;20.60;59.20;;;;;;5113591;28;20176;-61
2023/05/14 08:39:15;;;;;;;4.22;3.92;;;20.60;59.10;;;;;;5114007;28;20204;-60
2023/05/14 08:41:40;;;;;;;4.55;4.15;;;20.70;59.10;;;;;;5113995;28;20212;-60
2023/05/14 08:44:13;;;;;;;3.85;3.55;;;20.70;59.00;;;;;;5113296;28;20180;-60
2023/05/14 08:46:39;;;;;;;4.65;4.35;;;20.70;58.90;;;;;;5114348;28;20177;-59
2023/05/14 08:49:27;;;;;;;3.80;3.60;;;20.70;58.90;;;;;;5113117;28;20215;-60
2023/05/14 08:51:52;;;;;;;4.20;3.80;;;20.60;59.10;;;;;;5114113;28;20574;-60
2023/05/14 08:54:18;;;;;;;4.20;3.90;;;20.60;59.20;;;;;;5112525;28;20166;-60
2023/05/14 08:56:45;;;;;;;4.00;3.70;;;20.60;59.30;;;;;;5113401;28;20184;-60
2023/05/14 08:59:11;;;;;;;4.10;3.80;;;20.50;59.30;;;;;;5113730;28;20177;-60
2023/05/14 09:01:38;;;;;;;4.18;3.83;;;20.60;59.40;;;;;;5112539;28;20234;-60
2023/05/14 09:04:07;;;;;;;4.68;4.28;;;20.60;59.40;;;;;;5113088;28;20173;-60
2023/05/14 09:06:36;;;;;;;4.35;4.05;;;20.60;59.40;;;;;;5112665;28;20176;-59
2023/05/14 09:09:02;;;;;;;4.68;4.28;;;20.60;59.50;;;;;;5113905;28;20201;-59
2023/05/14 09:11:28;;;;;;;4.20;3.90;;;20.60;59.60;;;;;;5112923;28;20528;-60
2023/05/14 09:13:54;;;;;;;4.30;4.00;;;20.70;59.50;;;;;;5113761;28;20600;-60
2023/05/14 09:16:19;;;;;;;4.30;3.70;;;20.70;59.40;;;;;;5113281;28;20188;-59
2023/05/14 09:18:45;;;;;;;5.18;4.57;;;20.80;59.40;;;;;;5094724;28;20660;-60
2023/05/14 09:21:15;;;;;;;4.60;4.30;;;20.80;59.40;;;;;;5112272;28;20663;-59
2023/05/14 09:23:42;;;;;;;5.00;4.18;;;20.80;59.50;;;;;;5111963;28;20216;-59
2023/05/14 09:26:07;;;;;;;4.30;3.90;;;20.80;59.60;;;;;;5112003;28;20191;-59
2023/05/14 09:28:33;;;;;;;4.10;3.80;;;20.80;59.60;;;;;;5111421;28;20169;-60
2023/05/14 09:30:58;;;;;;;4.43;4.13;;;20.80;59.50;;;;;;5112393;28;20177;-60
2023/05/14 09:33:27;;;;;;;4.30;4.00;;;20.90;59.60;;;;;;5112241;28;20649;-61
2023/05/14 09:36:00;;;;;;;3.95;3.53;;;20.90;59.60;;;;;;5111755;28;20196;-61
2023/05/14 09:38:31;;;;;;;4.28;3.97;;;20.90;59.50;;;;;;5129993;27;20178;-60
2023/05/14 09:40:57;;;;;;;4.03;3.72;;;20.90;59.50;;;;;;5092847;28;20197;-60
2023/05/14 09:43:23;;;;;;;4.45;4.13;;;20.90;59.50;;;;;;5104240;27;20196;-60
2023/05/14 09:45:48;;;;;;;4.00;3.70;;;20.90;59.50;;;;;;5132121;27;20263;-60
2023/05/14 09:48:14;;;;;;;4.20;3.83;;;21.00;59.60;;;;;;5112319;28;20207;-60
2023/05/14 09:50:43;;;;;;;4.47;4.15;;;20.90;59.50;;;;;;5113208;28;20580;-59
2023/05/14 09:53:09;;;;;;;4.35;3.97;;;21.00;59.50;;;;;;5128451;27;20255;-60
2023/05/14 09:55:35;;;;;;;4.45;4.05;;;21.00;59.60;;;;;;5133029;27;20210;-60
2023/05/14 09:58:01;;;;;;;4.13;3.78;;;21.00;59.50;;;;;;5133835;27;20219;-60
2023/05/14 10:00:27;;;;;;;3.72;3.53;;;21.00;59.50;;;;;;5131531;28;20204;-61
2023/05/14 10:02:53;;;;;;;4.15;3.85;;;21.10;59.50;;;;;;5133668;27;20175;-60
2023/05/14 10:05:20;;;;;;;4.35;3.95;;;21.10;59.50;;;;;;5133327;27;20229;-60
2023/05/14 10:07:47;;;;;;;4.32;3.83;;;21.00;59.50;;;;;;5114610;28;20172;-60
2023/05/14 10:10:19;;;;;;;3.90;3.60;;;21.10;59.50;;;;;;5115606;28;20671;-59
2023/05/14 10:13:03;;;;;;;4.85;4.45;;;21.10;59.60;;;;;;5113127;28;20173;-59
2023/05/14 10:15:34;;;;;;;4.20;3.90;;;21.10;59.50;;;;;;5110946;28;20177;-60
2023/05/14 10:18:03;;;;;;;4.00;3.70;;;21.10;59.50;;;;;;5111799;28;20169;-60
2023/05/14 10:20:28;;;;;;;4.30;3.90;;;21.10;59.50;;;;;;5110688;28;20602;-59
2023/05/14 10:22:54;;;;;;;4.50;4.10;;;21.10;59.50;;;;;;5111567;28;20291;-59
2023/05/14 10:25:20;;;;;;;5.43;3.90;;;21.10;59.50;;;;;;5094282;28;20639;-59
2023/05/14 10:27:45;;;;;;;3.83;3.53;;;21.20;59.50;;;;;;5111210;28;20173;-60
2023/05/14 10:30:14;;;;;;;3.97;3.72;;;21.20;59.50;;;;;;5094170;28;20208;-61
2023/05/14 10:32:40;;;;;;;4.20;3.80;;;21.20;59.40;;;;;;5112637;28;20539;-61
2023/05/14 10:35:16;;;;;;;4.78;4.18;;;21.20;59.30;;;;;;5111950;28;20178;-60
2023/05/14 10:37:42;;;;;;;4.40;3.90;;;21.20;59.30;;;;;;5112495;28;20226;-60
2023/05/14 10:40:08;;;;;;;4.30;3.97;;;21.30;59.30;;;;;;5111485;28;20264;-60
2023/05/14 10:42:38;;;;;;;3.80;3.60;;;21.20;59.20;;;;;;5113177;28;20310;-60
2023/05/14 10:45:07;;;;;;;4.80;3.30;;;21.30;59.20;;;;;;5133470;27;20169;-60
2023/05/14 10:47:35;;;;;;;3.72;3.13;;;21.30;59.20;;;;;;5132095;28;20172;-60
2023/05/14 10:50:02;;;;;;;4.15;3.65;;;21.30;59.20;;;;;;5132350;27;20292;-60
2023/05/14 10:52:28;;;;;;;4.13;3.83;;;21.30;59.20;;;;;;5132856;27;20652;-59
2023/05/14 10:54:58;;;;;;;3.63;3.42;;;21.30;59.20;;;;;;5133310;28;20313;-60
2023/05/14 10:57:28;;;;;;;4.22;3.53;;;21.30;59.20;;;;;;5132431;27;20169;-60
2023/05/14 10:59:58;;;;;;;4.03;3.72;;;21.30;59.20;;;;;;5132920;27;20645;-60
2023/05/14 11:02:30;;;;;;;6.05;3.88;;;21.40;59.20;;;;;;5132626;27;20179;-61
2023/05/14 11:05:07;;;;;;;3.78;3.47;;;21.40;59.80;;;;;;5133184;27;20291;-60
2023/05/14 11:07:40;;;;;;;3.70;3.40;;;21.40;59.20;;;;;;5136562;27;20622;-60
2023/05/14 11:10:12;;;;;;;4.15;3.85;;;21.40;59.20;;;;;;5135680;27;20276;-60
2023/05/14 11:12:39;;;;;;;3.97;3.67;;;21.40;59.20;;;;;;5136483;27;20180;-60
2023/05/14 11:15:09;;;;;;;3.83;3.53;;;21.40;59.20;;;;;;5136064;27;20658;-60
2023/05/14 11:17:35;;;;;;;3.60;3.30;;;21.40;59.20;;;;;;5135625;27;20174;-60
2023/05/14 11:20:01;;;;;;;4.18;3.70;;;21.40;59.20;;;;;;5136576;27;20168;-59
2023/05/14 11:22:27;;;;;;;3.50;3.30;;;21.30;59.20;;;;;;5136185;27;20569;-60
2023/05/14 11:24:55;;;;;;;4.07;3.78;;;21.30;59.30;;;;;;5135577;27;20622;-60
2023/05/14 11:27:23;;;;;;;3.72;3.42;;;21.50;59.40;;;;;;5136050;27;20172;-60
2023/05/14 11:29:52;;;;;;;3.85;3.55;;;21.40;59.40;;;;;;5136092;27;20200;-61
2023/05/14 11:32:21;;;;;;;4.32;3.95;;;21.40;59.30;;;;;;5135265;27;20267;-61
2023/05/14 11:34:46;;;;;;;3.60;3.30;;;21.50;59.30;;;;;;5136278;27;20173;-61
2023/05/14 11:37:13;;;;;;;3.88;3.45;;;21.50;59.20;;;;;;5135863;27;20633;-60
2023/05/14 11:39:44;;;;;;;5.57;3.60;;;21.50;59.20;;;;;;5135463;27;20193;-60
2023/05/14 11:42:11;;;;;;;5.85;3.88;;;21.50;59.10;;;;;;5135722;27;20172;-60
2023/05/14 11:44:37;;;;;;;3.78;3.47;;;21.50;59.20;;;;;;5117260;27;20184;-60
2023/05/14 11:47:03;;;;;;;3.72;3.42;;;21.60;59.20;;;;;;5115493;28;20165;-62
2023/05/14 11:49:29;;;;;;;3.65;3.35;;;21.60;59.10;;;;;;5115266;28;20216;-63
2023/05/14 11:51:58;;;;;;;3.58;3.28;;;21.60;59.10;;;;;;5114773;28;20450;-62
2023/05/14 11:54:27;;;;;;;3.58;3.28;;;21.70;59.10;;;;;;5114925;28;20270;-63
2023/05/14 11:56:54;;;;;;;4.85;3.67;;;21.70;59.00;;;;;;5115009;28;20173;-63
2023/05/14 11:59:20;;;;;;;3.22;2.95;;;21.80;59.00;;;;;;5114160;28;20673;-64
2023/05/14 12:01:45;;;;;;;3.63;3.42;;;21.80;58.90;;;;;;5113901;28;20173;-62
2023/05/14 12:04:12;;;;;;;3.33;3.13;;;21.90;59.00;;;;;;5114859;28;20564;-61
2023/05/14 12:06:38;;;;;;;4.60;3.67;;;21.90;58.90;;;;;;5113013;28;20181;-63
2023/05/14 12:09:04;;;;;;;5.35;3.42;;;21.90;58.90;;;;;;5114104;28;20200;-61
2023/05/14 12:11:31;;;;;;;3.80;3.50;;;21.80;58.90;;;;;;5114245;28;20195;-62
2023/05/14 12:13:57;;;;;;;3.53;3.30;;;21.70;59.00;;;;;;5113873;28;20278;-61
2023/05/14 12:16:23;;;;;;;4.85;3.72;;;21.70;59.00;;;;;;5113828;28;20173;-62
2023/05/14 12:18:48;;;;;;;4.32;3.25;;;21.80;59.00;;;;;;5114153;28;20176;-62
2023/05/14 12:21:14;;;;;;;3.83;3.53;;;21.70;58.90;;;;;;5113559;28;20177;-61
2023/05/14 12:23:39;;;;;;;3.72;3.42;;;21.80;59.10;;;;;;5114665;28;20228;-62
2023/05/14 12:26:07;;;;;;;3.53;3.22;;;21.70;59.10;;;;;;5114326;28;20218;-62
2023/05/14 12:28:33;;;;;;;3.83;3.53;;;21.80;59.30;;;;;;5114185;28;20169;-62
2023/05/14 12:30:59;;;;;;;6.25;3.08;;;21.70;59.30;;;;;;5114812;28;20553;-63
2023/05/14 12:33:27;;;;;;;3.72;3.15;;;21.70;59.30;;;;;;5114278;28;20177;-64
2023/05/14 12:36:07;;;;;;;3.17;2.97;;;21.80;59.20;;;;;;5089630;28;21058;-64
2023/05/14 12:38:32;;;;;;;4.63;3.40;;;21.70;59.20;;;;;;5090411;28;20243;-63
2023/05/14 12:40:58;;;;;;;3.53;3.22;;;21.80;59.20;;;;;;5089733;28;20173;-62
2023/05/14 12:43:23;;;;;;;4.70;3.60;;;21.80;59.00;;;;;;5097928;28;20542;-63